Free Trial

Global Net Lease (GNL) Institutional Ownership

$7.24
-0.18 (-2.42%)
(As of 05/28/2024 ET)

Institutional Ownership Changes (13F Filings) for Global Net Lease (NYSE:GNL)

Current
Institutional Ownership
Percentage
61.19%
Number of
Institutional Buyers
(last 12 months)
178
Total
Institutional Inflows
(last 12 months)
$422.73M
Number of
Institutional Sellers
(last 12 months)
79
Total
Institutional Outflows
(last 12 months)
$76.37M
Get GNL Insider Trade Alerts

Want to know when executives and insiders are buying or selling Global Net Lease stock? Sign up for InsiderTrades.com's daily newsletter to get the latest insider transactions delivered to your inbox daily.

Skip Chart & View Institutional Buying and Selling Data

GNL Institutional Buying and Selling by Quarter

Global Net Lease Major Shareholders & Ownership History

Reporting DateMajor Shareholder NameShares HeldMarket Value% of PortfolioQuarterly Change in SharesOwnership in CompanyDetails
5/24/2024 Cetera Advisors LLC57,315$445K0.0%+130.6%0.025%
5/20/2024 EMC Capital Management34,840$271K0.2%+57.9%0.015%
5/17/2024 Coppell Advisory Solutions Corp.27,015$210K0.0%N/A0.012%
5/16/2024 California State Teachers Retirement System195,662$1.52M0.0%-6.2%0.085%
5/15/2024 SVB Wealth LLC30,774$239K0.0%+15.9%0.013%
5/15/2024 Public Employees Retirement System of Ohio283,182$2.20M0.0%-0.8%0.123%
5/15/2024 Price T Rowe Associates Inc. MD116,384$905K0.0%+6.5%0.051%
5/15/2024 BOKF NA23,656$182K0.0%-14.5%0.010%
5/15/2024 Beck Capital Management LLC470,368$3.66M1.1%-8.1%0.204%
5/14/2024 Cadence Bank20,500$159K0.0%N/A0.009%
5/14/2024 Advisors Asset Management Inc.698,844$5.43M0.1%+73.5%0.303%
5/14/2024 CANADA LIFE ASSURANCE Co396,844$3.08M0.0%+3.7%0.172%
5/14/2024 Gagnon Securities LLC113,866$885K0.2%+8.5%0.049%
5/13/2024 UniSuper Management Pty Ltd130,355$1.01M0.0%+134.9%0.057%
5/11/2024 Edgestream Partners L.P.488,740$3.80M0.2%N/A0.212%
5/10/2024 Vanguard Group Inc.33,755,304$262.28M0.0%-0.5%14.622%
5/9/2024 Pacific Ridge Capital Partners LLC100,907$784K0.2%-7.4%0.044%
5/9/2024 State Board of Administration of Florida Retirement System23,093$179K0.0%-58.4%0.010%
5/8/2024 ProShare Advisors LLC39,265$305K0.0%+7.3%0.017%
5/8/2024 QRG Capital Management Inc.13,109$102K0.0%-18.1%0.006%
5/7/2024 Atomi Financial Group Inc.10,395$81K0.0%N/A0.005%
5/7/2024 Significant Wealth Partners LLC319,224$2.48M1.6%+1,361.6%0.138%
5/7/2024 Allegheny Financial Group LTD60,812$473K0.1%-8.4%0.026%
5/7/2024 Illinois Municipal Retirement Fund113,714$884K0.0%+5.5%0.049%
5/7/2024 SG Americas Securities LLC25,515$198K0.0%-80.6%0.011%
5/6/2024 LSV Asset Management1,208,607$9.39M0.0%-50.4%0.524%
5/6/2024 Texas Permanent School Fund Corp170,328$1.32M0.0%+1.0%0.074%
5/4/2024 Geneos Wealth Management Inc.18,036$140K0.0%-15.8%0.008%
5/2/2024 Daiwa Securities Group Inc.63,390$493K0.0%+7.3%0.027%
5/1/2024 Janney Montgomery Scott LLC123,528$960K0.0%+28.9%0.054%
5/1/2024 BNP Paribas Financial Markets103,420$804K0.0%+58.7%0.045%
5/1/2024 Mirae Asset Global Investments Co. Ltd.2,236,299$17.38M0.0%+25.9%0.969%
5/1/2024 Diversify Advisory Services LLC35,368$272K0.0%N/A0.015%
4/30/2024 J.W. Cole Advisors Inc.34,607$269K0.0%-10.9%0.015%
4/29/2024Commonwealth Equity Services LLC304,660$2.37M0.0%+1.5%0.132%
4/29/2024 Principal Financial Group Inc.1,013,855$7.88M0.0%-5.4%0.439%
4/26/2024 Yousif Capital Management LLC88,026$684K0.0%-9.3%0.038%
4/25/2024 New York State Teachers Retirement System79,653$619K0.0%+18.0%0.035%
4/25/2024 Cambridge Investment Research Advisors Inc.406,671$3.16M0.0%+12.9%0.177%
4/24/2024 Newbridge Financial Services Group Inc.225,057$1.75M0.8%+22.5%0.098%
The ONE AI Stock to own now. (It’s not Nvidia.) (Ad)

Don’t panic — you haven’t missed the boat on AI. In fact, it has barely launched. Sure, the early stages of this boom were big … But I believe the real wealth in AI has yet to be made …

Click here to see the presentation now.
4/23/2024 Strategic Blueprint LLC18,181$141K0.0%-16.7%0.008%
4/22/2024 PFG Investments LLC20,709$161K0.0%N/A0.009%
4/22/2024 GraniteShares Advisors LLC168,657$1.31M0.7%+14.6%0.073%
4/19/2024 First Trust Direct Indexing L.P.17,029$132K0.0%N/A0.007%
4/19/2024 Kovack Advisors Inc.72,435$563K0.1%+22.4%0.031%
4/19/2024 Sumitomo Mitsui Trust Holdings Inc.216,968$1.69M0.0%-5.3%0.094%
4/15/2024 Sunbelt Securities Inc.13,098$102K0.0%-11.3%0.006%
4/15/2024 Kingswood Wealth Advisors LLC15,304$119K0.0%N/A0.007%
4/15/2024 Sound Income Strategies LLC1,022,526$7.95M0.6%+17.9%0.444%
4/11/2024 BTC Capital Management Inc.38,913$302K0.0%N/A0.017%
4/5/2024 GAMMA Investing LLC3,288$26K0.0%-47.0%0.001%
3/28/2024 Newbridge Financial Services Group Inc.183,722$1.83M0.9%+59.1%0.080%
3/22/2024 PNC Financial Services Group Inc.6,778$67K0.0%-28.8%0.003%
3/11/2024 Vanguard Group Inc.33,932,387$337.63M0.0%+10.3%14.731%
3/8/2024 ICA Group Wealth Management LLC7,763$77K0.0%-36.9%0.003%
3/5/2024 Fisher Asset Management LLC580,270$5.77M0.0%-4.9%0.252%
2/29/2024 Scarborough Advisors LLC2,465$25K0.0%N/A0.001%
2/14/2024 CastleKnight Management LP1,164,081$11.58M0.6%+59.2%0.505%
2/12/2024 Hsbc Holdings PLC4,690,962$47.09M0.0%-2.9%2.037%
2/9/2024 Nomura Asset Management Co. Ltd.219,851$2.19M0.0%+1.4%0.095%
2/9/2024 Cambridge Investment Research Advisors Inc.360,146$3.58M0.0%+0.5%0.156%
2/9/2024 Journey Strategic Wealth LLC10,627$106K0.0%N/A0.005%
2/9/2024 Corient Private Wealth LLC2,688,951$26.76M0.0%+3,410.4%1.167%
2/9/2024 Norges Bank942,483$9.38M0.0%N/A0.409%
2/8/2024 Allegheny Financial Group LTD66,418$661K0.2%+5.4%0.029%
2/8/2024 Beacon Pointe Advisors LLC53,862$536K0.0%-5.2%0.023%
2/8/2024 Quadrant Capital Group LLC13,257$132K0.0%+177.9%0.006%
2/8/2024 Janney Montgomery Scott LLC95,805$953K0.0%N/A0.042%
2/8/2024 Vanguard Personalized Indexing Management LLC20,048$199K0.0%N/A0.009%
2/8/2024 Mitsubishi UFJ Asset Management Co. Ltd.119,276$1.16M0.0%+4.3%0.052%
2/7/2024 Principal Financial Group Inc.1,071,595$10.66M0.0%-1.2%0.465%
2/7/2024 Dimensional Fund Advisors LP2,724,873$27.11M0.0%+3.5%1.183%
2/7/2024 QRG Capital Management Inc.15,997$159K0.0%-90.3%0.007%
2/7/2024 NBC Securities Inc.11,529$114K0.0%-20.7%0.005%
2/7/2024 BNP Paribas Financial Markets65,168$648K0.0%-36.7%0.028%
2/7/2024 Teacher Retirement System of Texas35,348$352K0.0%-52.8%0.015%
2/7/2024 Principal Securities Inc.8,615$86K0.0%N/A0.004%
2/6/2024 Picton Mahoney Asset Management44,501$443K0.0%N/A0.019%
2/6/2024 Charles Schwab Investment Management Inc.3,698,157$36.80M0.0%+5.7%1.606%
2/6/2024 LSV Asset Management2,437,061$24.25M0.1%-36.1%1.058%
2/6/2024 Amalgamated Bank73,624$733K0.0%-2.6%0.032%
2/6/2024 Swiss National Bank385,557$3.84M0.0%-9.5%0.167%
2/6/2024 Fisher Asset Management LLC575,194$5.72M0.0%-5.7%0.250%
2/6/2024 Essex Financial Services Inc.12,069$120K0.0%+20.7%0.005%
2/5/2024 Victory Capital Management Inc.38,960$388K0.0%+23.5%0.017%
2/5/2024 Van ECK Associates Corp27,279$271K0.0%+19.7%0.012%
2/5/2024 HHM Wealth Advisors LLC3,068$31K0.0%-37.4%0.001%
2/5/2024 Russell Investments Group Ltd.20,759$207K0.0%+7,183.9%0.009%
2/2/2024 Kovack Advisors Inc.59,200$589K0.1%+58.8%0.026%
2/2/2024 Atria Wealth Solutions Inc.474,172$4.72M0.1%+4.4%0.206%
The ONE AI Stock to own now. (It’s not Nvidia.) (Ad)

Don’t panic — you haven’t missed the boat on AI. In fact, it has barely launched. Sure, the early stages of this boom were big … But I believe the real wealth in AI has yet to be made …

Click here to see the presentation now.
2/1/2024 GAMMA Investing LLC6,205$62K0.0%N/A0.003%
2/1/2024 New York State Common Retirement Fund163,541$1.63M0.0%+0.7%0.071%
2/1/2024 Illinois Municipal Retirement Fund107,744$1.07M0.0%+71.1%0.047%
2/1/2024 Significant Wealth Partners LLC21,841$217K0.2%N/A0.009%
2/1/2024 Sigma Planning Corp13,892$138K0.0%-68.3%0.006%
2/1/2024 Handelsbanken Fonder AB38,446$383K0.0%+100.8%0.017%
2/1/2024 CWM LLC20,542$204K0.0%+14.0%0.009%
1/31/2024 abrdn plc35,790$356K0.0%-9.1%0.016%
1/31/2024 Federated Hermes Inc.4,855$48K0.0%-94.9%0.002%
1/31/2024 Daiwa Securities Group Inc.59,101$588K0.0%-3.8%0.026%
(Data available from 1/1/2016 forward)

GNL Institutional Ownership - Frequently Asked Questions

Who are the largest shareholders of GNL shares?

During the previous two years, 254 institutional investors and hedge funds held shares of Global Net Lease. The most heavily invested institutionals were Vanguard Group Inc. ($262.28M), Hsbc Holdings PLC ($47.09M), Charles Schwab Investment Management Inc. ($36.80M), Dimensional Fund Advisors LP ($27.11M), Corient Private Wealth LLC ($26.76M), Invesco Ltd. ($21.45M), and Northern Trust Corp ($21.31M).Learn more on GNL's institutional investors.

What percentage of Global Net Lease stock is owned by institutional investors?

61.19% of Global Net Lease stock is owned by institutional investors. Learn more on GNL's institutional investor holdings.

Which institutional investors have been buying Global Net Lease stock?

Of the 226 institutional investors that purchased Global Net Lease stock in the last 24 months, the following investors and hedge funds have bought the highest volume of shares: Vanguard Group Inc. ($17.20M), Hsbc Holdings PLC ($4.79M), Mirae Asset Global Investments Co. Ltd. ($2.91M), LSV Asset Management ($2.64M), Corient Private Wealth LLC ($2.61M), Charles Schwab Investment Management Inc. ($1.94M), and Northern Trust Corp ($1.01M).

How much institutional buying is happening at Global Net Lease?

Institutional investors have bought a total of 50,273,428 shares in the last 24 months. This purchase volume represents approximately $501.87M in transactions.

Which Global Net Lease major shareholders have been selling company stock?

Of the 122 institutional investors that sold Global Net Lease stock in the last 24 months, the following investors and hedge funds have sold the highest volume of shares: Mirae Asset Global Investments Co. Ltd. ($3.75M), LSV Asset Management ($2.60M), Envestnet Asset Management Inc. ($663.43K), Arete Wealth Advisors LLC ($343.58K), Keeley Teton Advisors LLC ($291.45K), Federated Hermes Inc. ($286.50K), and Vanguard Group Inc. ($177.08K).

How much institutional selling is happening at Global Net Lease?

Institutional investors have sold a total of 11,696,551 shares in the last 24 months. This volume of shares sold represents approximately $124.56M in transactions.


This page (NYSE:GNL) was last updated on 5/29/2024 by MarketBeat.com Staff

From Our Partners